Time;durP1;ratioP1;P1;durP2;ratioP2;P2;SDS_P1;SDS_P2;PMS_P1;PMS_P2;Temp;Humidity;BMP_temperature;BMP_pressure;BME280_temperature;BME280_humidity;BME280_pressure;Samples;Min_cycle;Max_cycle;Signal;HPM_P1;HPM_P2
2022/10/09 00:02:06;;;;;;;10.90;2.75;;;;;;;;;;5127907;27;20521;-71
2022/10/09 00:04:36;;;;;;;7.65;2.90;;;;;;;;;;5126870;27;20051;-72
2022/10/09 00:07:06;;;;;;;10.65;2.10;;;;;;;;;;5127583;27;20409;-72
2022/10/09 00:09:36;;;;;;;6.45;2.60;;;;;;;;;;5127629;27;20077;-72
2022/10/09 00:12:07;;;;;;;5.20;2.75;;;;;;;;;;5128043;27;20054;-72
2022/10/09 00:14:37;;;;;;;5.80;2.85;;;;;;;;;;5128062;27;20584;-72
2022/10/09 00:17:07;;;;;;;6.72;2.47;;;;;;;;;;5127863;27;20121;-71
2022/10/09 00:19:37;;;;;;;7.80;2.47;;;;;;;;;;5127878;27;20051;-71
2022/10/09 00:22:07;;;;;;;4.85;2.17;;;;;;;;;;5127047;27;20389;-71
2022/10/09 00:24:37;;;;;;;10.35;3.75;;;;;;;;;;5130106;27;20541;-71
2022/10/09 00:27:07;;;;;;;9.75;2.60;;;;;;;;;;5128468;27;20051;-71
2022/10/09 00:29:36;;;;;;;4.85;2.05;;;;;;;;;;5124079;27;20055;-72
2022/10/09 00:32:06;;;;;;;5.80;2.35;;;;;;;;;;5126400;27;20066;-72
2022/10/09 00:34:36;;;;;;;11.32;2.55;;;;;;;;;;5125614;27;20533;-72
2022/10/09 00:37:06;;;;;;;7.85;2.83;;;;;;;;;;5126168;27;20070;-72
2022/10/09 00:39:35;;;;;;;5.18;2.10;;;;;;;;;;5125916;27;20050;-71
2022/10/09 00:42:05;;;;;;;10.15;2.92;;;;;;;;;;5126864;27;20062;-72
2022/10/09 00:44:56;;;;;;;13.77;2.38;;;;;;;;;;5126293;27;20066;-71
2022/10/09 00:47:43;;;;;;;6.03;2.38;;;;;;;;;;5126647;27;20050;-72
2022/10/09 00:50:42;;;;;;;8.50;2.25;;;;;;;;;;5125233;27;20117;-72
2022/10/09 00:53:17;;;;;;;3.78;2.00;;;;;;;;;;5116635;27;20059;-73
2022/10/09 00:55:47;;;;;;;5.18;2.40;;;;;;;;;;5123768;27;20035;-72
2022/10/09 00:58:18;;;;;;;7.97;2.08;;;;;;;;;;5124171;27;20416;-72
2022/10/09 01:00:48;;;;;;;8.95;2.60;;;;;;;;;;5123927;27;20051;-73
2022/10/09 01:03:19;;;;;;;5.90;2.47;;;;;;;;;;5125084;28;20051;-71
2022/10/09 01:06:12;;;;;;;8.15;2.15;;;;;;;;;;5125105;28;20058;-71
2022/10/09 01:08:57;;;;;;;11.57;2.80;;;;;;;;;;5126116;28;20054;-71
2022/10/09 01:11:30;;;;;;;6.28;2.30;;;;;;;;;;5126296;28;20144;-73
2022/10/09 01:14:04;;;;;;;10.30;2.60;;;;;;;;;;5124611;28;20520;-72
2022/10/09 01:16:56;;;;;;;8.32;2.80;;;;;;;;;;5122262;28;20057;-71
2022/10/09 01:19:59;;;;;;;7.40;2.40;;;;;;;;;;5124669;28;20043;-71
2022/10/09 01:22:51;;;;;;;8.40;2.47;;;;;;;;;;5121917;28;20051;-71
2022/10/09 01:25:45;;;;;;;5.40;2.50;;;;;;;;;;5126648;28;20047;-72
2022/10/09 01:28:17;;;;;;;5.95;2.28;;;;;;;;;;5127108;28;20397;-71
2022/10/09 01:30:48;;;;;;;7.47;2.70;;;;;;;;;;5126482;28;20051;-71
2022/10/09 01:33:18;;;;;;;10.15;3.22;;;;;;;;;;5108092;28;20047;-71
2022/10/09 01:35:49;;;;;;;8.82;2.60;;;;;;;;;;5126553;28;20050;-71
2022/10/09 01:38:23;;;;;;;5.68;2.67;;;;;;;;;;5126667;28;20405;-71
2022/10/09 01:40:53;;;;;;;8.00;2.67;;;;;;;;;;5127180;27;20054;-71
2022/10/09 01:43:23;;;;;;;6.43;2.25;;;;;;;;;;5129356;27;20054;-71
2022/10/09 01:46:20;;;;;;;3.95;2.47;;;;;;;;;;5130769;27;20047;-71
2022/10/09 01:49:05;;;;;;;5.68;2.97;;;;;;;;;;5130564;27;20051;-72
2022/10/09 01:51:51;;;;;;;8.45;2.40;;;;;;;;;;5130240;27;20048;-71
2022/10/09 01:54:42;;;;;;;6.43;2.83;;;;;;;;;;5130538;27;20047;-71
2022/10/09 01:57:17;;;;;;;7.03;3.10;;;;;;;;;;5128369;27;20051;-71
2022/10/09 01:59:48;;;;;;;11.57;2.45;;;;;;;;;;5130365;27;20389;-71
2022/10/09 02:02:20;;;;;;;7.78;3.10;;;;;;;;;;5129256;27;20042;-72
2022/10/09 02:04:51;;;;;;;5.85;2.58;;;;;;;;;;5128580;27;20051;-71
2022/10/09 02:07:23;;;;;;;5.57;2.78;;;;;;;;;;5128343;27;20051;-71
2022/10/09 02:09:54;;;;;;;5.57;2.50;;;;;;;;;;5130641;27;20517;-71
2022/10/09 02:12:29;;;;;;;5.47;2.50;;;;;;;;;;5130187;27;20386;-72
2022/10/09 02:14:59;;;;;;;6.93;3.05;;;;;;;;;;5129936;27;20039;-71
2022/10/09 02:17:34;;;;;;;6.88;3.15;;;;;;;;;;5131162;27;20489;-71
2022/10/09 02:20:18;;;;;;;5.07;2.58;;;;;;;;;;5130655;27;20043;-71
2022/10/09 02:22:48;;;;;;;8.23;2.88;;;;;;;;;;5129600;27;20043;-72
2022/10/09 02:25:19;;;;;;;10.98;2.72;;;;;;;;;;5130365;27;20043;-71
2022/10/09 02:27:49;;;;;;;6.28;2.20;;;;;;;;;;5129494;27;20382;-71
2022/10/09 02:30:20;;;;;;;4.15;2.58;;;;;;;;;;5129681;27;20416;-71
2022/10/09 02:32:53;;;;;;;7.65;2.15;;;;;;;;;;5129690;27;20043;-71
2022/10/09 02:35:23;;;;;;;9.45;2.85;;;;;;;;;;5129447;27;20074;-71
2022/10/09 02:37:53;;;;;;;6.40;2.78;;;;;;;;;;5128807;27;20050;-71
2022/10/09 02:40:23;;;;;;;7.82;2.85;;;;;;;;;;5129588;27;20059;-71
2022/10/09 02:42:53;;;;;;;14.18;3.38;;;;;;;;;;5129940;27;20050;-72
2022/10/09 02:45:23;;;;;;;9.35;2.67;;;;;;;;;;5130000;27;20050;-71
2022/10/09 02:47:52;;;;;;;11.43;3.25;;;;;;;;;;5128697;27;20051;-71
2022/10/09 02:50:23;;;;;;;7.10;2.83;;;;;;;;;;5130251;27;20062;-71
2022/10/09 02:52:52;;;;;;;8.68;2.92;;;;;;;;;;5129002;27;20730;-71
2022/10/09 02:55:22;;;;;;;8.60;3.08;;;;;;;;;;5129268;27;20054;-71
2022/10/09 02:57:52;;;;;;;8.63;2.97;;;;;;;;;;5129465;27;20043;-71
2022/10/09 03:00:23;;;;;;;8.27;2.92;;;;;;;;;;5127407;27;20055;-71
2022/10/09 03:02:52;;;;;;;;;;;;;;;;;;5129503;27;20520;-71
2022/10/09 03:05:21;;;;;;;8.13;3.40;;;;;;;;;;5129809;27;19924;-71
2022/10/09 03:07:51;;;;;;;6.28;2.63;;;;;;;;;;5128993;27;20055;-71
2022/10/09 03:10:21;;;;;;;5.75;2.95;;;;;;;;;;5127287;27;20059;-71
2022/10/09 03:12:51;;;;;;;7.05;2.65;;;;;;;;;;5128931;27;20151;-71
2022/10/09 03:15:20;;;;;;;;;;;;;;;;;;5128368;27;20054;-71
2022/10/09 03:17:50;;;;;;;8.65;2.85;;;;;;;;;;5128874;27;19923;-71
2022/10/09 03:20:21;;;;;;;9.40;2.75;;;;;;;;;;5126937;27;20528;-71
2022/10/09 03:22:50;;;;;;;7.75;3.22;;;;;;;;;;5128931;27;20049;-71
2022/10/09 03:25:20;;;;;;;8.75;3.08;;;;;;;;;;5128529;27;20440;-71
2022/10/09 03:27:50;;;;;;;8.70;2.67;;;;;;;;;;5128733;27;20039;-71
2022/10/09 03:30:19;;;;;;;8.38;3.22;;;;;;;;;;5128695;27;20473;-72
2022/10/09 03:32:49;;;;;;;6.35;3.13;;;;;;;;;;5128804;27;20084;-71
2022/10/09 03:35:19;;;;;;;9.85;2.85;;;;;;;;;;5128031;27;20063;-71
2022/10/09 03:37:49;;;;;;;8.82;2.70;;;;;;;;;;5128923;27;20043;-71
2022/10/09 03:40:18;;;;;;;;;;;;;;;;;;5129139;27;20050;-71
2022/10/09 03:42:47;;;;;;;7.45;2.85;;;;;;;;;;5128531;27;20389;-71
2022/10/09 03:45:17;;;;;;;8.07;3.03;;;;;;;;;;5128121;27;20062;-71
2022/10/09 03:47:47;;;;;;;6.88;3.22;;;;;;;;;;5128576;27;20062;-71
2022/10/09 03:50:17;;;;;;;8.85;3.15;;;;;;;;;;5129283;27;20043;-71
2022/10/09 03:52:47;;;;;;;9.60;2.72;;;;;;;;;;5128671;27;20046;-71
2022/10/09 03:55:17;;;;;;;11.95;3.50;;;;;;;;;;5128361;27;20043;-71
2022/10/09 03:57:47;;;;;;;7.55;2.72;;;;;;;;;;5128574;27;20042;-71
2022/10/09 04:00:17;;;;;;;6.53;2.80;;;;;;;;;;5128181;27;20046;-72
2022/10/09 04:02:46;;;;;;;10.50;2.38;;;;;;;;;;5128136;27;20416;-71
2022/10/09 04:05:17;;;;;;;3.72;2.70;;;;;;;;;;5127304;27;20405;-71
2022/10/09 04:07:47;;;;;;;10.65;2.83;;;;;;;;;;5128324;27;20489;-71
2022/10/09 04:10:17;;;;;;;7.53;2.75;;;;;;;;;;5128153;27;20051;-71
2022/10/09 04:12:47;;;;;;;8.27;3.20;;;;;;;;;;5128057;27;20043;-71
2022/10/09 04:15:17;;;;;;;5.53;2.47;;;;;;;;;;5127990;27;20421;-71
2022/10/09 04:17:47;;;;;;;8.57;2.83;;;;;;;;;;5128439;27;20058;-71
2022/10/09 04:20:18;;;;;;;9.25;3.47;;;;;;;;;;5128231;27;20073;-71
2022/10/09 04:22:48;;;;;;;8.60;3.33;;;;;;;;;;5127991;27;20402;-72
2022/10/09 04:25:18;;;;;;;10.65;2.72;;;;;;;;;;5127818;27;20039;-71
2022/10/09 04:27:48;;;;;;;7.28;2.83;;;;;;;;;;5108262;27;20081;-71
2022/10/09 04:30:17;;;;;;;8.00;3.65;;;;;;;;;;5126667;27;20043;-71
2022/10/09 04:32:47;;;;;;;12.77;4.60;;;;;;;;;;5128071;27;20050;-71
2022/10/09 04:35:18;;;;;;;8.68;4.40;;;;;;;;;;5127735;27;20157;-73
2022/10/09 04:37:47;;;;;;;9.85;4.25;;;;;;;;;;5127792;27;20417;-71
2022/10/09 04:40:17;;;;;;;9.50;4.53;;;;;;;;;;5127245;27;20047;-72
2022/10/09 04:42:47;;;;;;;8.65;4.90;;;;;;;;;;5127651;27;20054;-72
2022/10/09 04:45:17;;;;;;;7.57;4.15;;;;;;;;;;5127800;27;20043;-72
2022/10/09 04:47:47;;;;;;;10.40;3.55;;;;;;;;;;5127655;27;20047;-72
2022/10/09 04:50:17;;;;;;;10.02;3.60;;;;;;;;;;5127537;27;20059;-73
2022/10/09 04:52:57;;;;;;;10.27;2.60;;;;;;;;;;5126118;27;20421;-71
2022/10/09 04:55:27;;;;;;;8.63;3.20;;;;;;;;;;5127345;27;20043;-72
2022/10/09 04:57:57;;;;;;;8.85;2.78;;;;;;;;;;5125868;27;20070;-71
2022/10/09 05:00:27;;;;;;;5.85;2.38;;;;;;;;;;5127517;27;20054;-71
2022/10/09 05:02:57;;;;;;;8.95;2.30;;;;;;;;;;5127270;28;20047;-72
2022/10/09 05:05:27;;;;;;;5.88;1.90;;;;;;;;;;5126525;28;20043;-70
2022/10/09 05:07:57;;;;;;;6.38;1.75;;;;;;;;;;5127326;28;20043;-73
2022/10/09 05:10:26;;;;;;;7.20;2.10;;;;;;;;;;5127354;28;20062;-72
2022/10/09 05:12:57;;;;;;;15.15;3.40;;;;;;;;;;5127251;28;20524;-73
2022/10/09 05:15:27;;;;;;;11.45;3.05;;;;;;;;;;5127237;27;20054;-72
2022/10/09 05:17:56;;;;;;;10.05;2.10;;;;;;;;;;5131002;27;20055;-72
2022/10/09 05:20:28;;;;;;;5.70;1.33;;;;;;;;;;5130015;27;20054;-72
2022/10/09 05:22:58;;;;;;;7.28;1.40;;;;;;;;;;5128479;27;20058;-72
2022/10/09 05:25:27;;;;;;;4.75;1.55;;;;;;;;;;5129323;27;20051;-70
2022/10/09 05:27:59;;;;;;;4.35;1.02;;;;;;;;;;5130189;27;20370;-72
2022/10/09 05:30:28;;;;;;;2.80;0.85;;;;;;;;;;5131348;27;20039;-71
2022/10/09 05:32:58;;;;;;;;;;;;;;;;;;5131782;27;20043;-70
2022/10/09 05:35:27;;;;;;;4.00;1.05;;;;;;;;;;5131521;27;19946;-73
2022/10/09 05:37:57;;;;;;;7.22;1.02;;;;;;;;;;5131016;27;20046;-73
2022/10/09 05:40:26;;;;;;;;;;;;;;;;;;5131075;27;20043;-72
2022/10/09 05:42:56;;;;;;;6.22;1.17;;;;;;;;;;5131130;27;19930;-71
2022/10/09 05:45:25;;;;;;;;;;;;;;;;;;5131365;27;20047;-75
2022/10/09 05:47:55;;;;;;;1.35;0.70;;;;;;;;;;5130433;27;19923;-72
2022/10/09 05:50:25;;;;;;;3.03;0.88;;;;;;;;;;5130878;27;20069;-72
2022/10/09 05:52:55;;;;;;;3.75;0.50;;;;;;;;;;5131090;27;20417;-72
2022/10/09 05:55:26;;;;;;;8.88;0.82;;;;;;;;;;5130317;27;20047;-71
2022/10/09 05:57:55;;;;;;;8.27;0.90;;;;;;;;;;5130596;27;20055;-70
2022/10/09 06:00:24;;;;;;;;;;;;;;;;;;5131895;27;20043;-72
2022/10/09 06:02:54;;;;;;;4.90;0.98;;;;;;;;;;5131103;27;20016;-73
2022/10/09 06:05:24;;;;;;;1.33;0.45;;;;;;;;;;5130353;27;20046;-74
2022/10/09 06:07:54;;;;;;;4.32;0.82;;;;;;;;;;5130160;27;20043;-71
2022/10/09 06:10:23;;;;;;;;;;;;;;;;;;5131016;27;20436;-72
2022/10/09 06:12:59;;;;;;;3.05;0.32;;;;;;;;;;5130336;27;19926;-71
2022/10/09 06:15:28;;;;;;;;;;;;;;;;;;5129284;27;20051;-72
2022/10/09 06:17:58;;;;;;;4.70;0.60;;;;;;;;;;5130281;27;19923;-71
2022/10/09 06:20:27;;;;;;;;;;;;;;;;;;5130291;27;20516;-71
2022/10/09 06:22:57;;;;;;;1.33;0.50;;;;;;;;;;5130252;27;19926;-72
2022/10/09 06:25:26;;;;;;;;;;;;;;;;;;5130710;27;20046;-71
2022/10/09 06:27:56;;;;;;;3.28;0.60;;;;;;;;;;5129118;27;19931;-71
2022/10/09 06:30:26;;;;;;;0.95;0.30;;;;;;;;;;5130367;27;20055;-71
2022/10/09 06:32:56;;;;;;;4.00;0.60;;;;;;;;;;5129494;27;20035;-72
2022/10/09 06:35:25;;;;;;;;;;;;;;;;;;5130372;27;20043;-72
2022/10/09 06:37:55;;;;;;;5.32;0.60;;;;;;;;;;5129566;27;19957;-70
2022/10/09 06:40:25;;;;;;;3.15;0.57;;;;;;;;;;5128372;27;20055;-72
2022/10/09 06:42:54;;;;;;;;;;;;;;;;;;5130202;27;20066;-72
2022/10/09 06:45:23;;;;;;;2.22;0.60;;;;;;;;;;5131095;27;19923;-71
2022/10/09 06:47:53;;;;;;;;;;;;;;;;;;5131178;27;20043;-71
2022/10/09 06:50:23;;;;;;;1.77;0.50;;;;;;;;;;5130324;27;19926;-72
2022/10/09 06:52:52;;;;;;;2.50;0.60;;;;;;;;;;5129314;27;20494;-72
2022/10/09 06:55:22;;;;;;;0.45;0.20;;;;;;;;;;5128179;27;20062;-70
2022/10/09 06:57:56;;;;;;;1.48;0.40;;;;;;;;;;5129203;27;20055;-72
2022/10/09 07:00:25;;;;;;;;;;;;;;;;;;5130126;27;20047;-71
2022/10/09 07:02:55;;;;;;;1.80;0.22;;;;;;;;;;5129142;27;20396;-71
2022/10/09 07:05:25;;;;;;;1.20;0.43;;;;;;;;;;5129338;27;20433;-71
2022/10/09 07:07:54;;;;;;;;;;;;;;;;;;5129998;27;20076;-72
2022/10/09 07:10:26;;;;;;;6.13;0.60;;;;;;;;;;5129690;27;19927;-71
2022/10/09 07:12:55;;;;;;;1.35;0.45;;;;;;;;;;5129020;27;20680;-73
2022/10/09 07:15:25;;;;;;;;;;;;;;;;;;5129208;27;20053;-71
2022/10/09 07:17:54;;;;;;;2.65;0.40;;;;;;;;;;5129014;27;19937;-71
2022/10/09 07:20:25;;;;;;;1.05;0.50;;;;;;;;;;5129058;27;20058;-72
2022/10/09 07:22:54;;;;;;;2.78;0.68;;;;;;;;;;5128735;27;20043;-72
2022/10/09 07:25:23;;;;;;;;;;;;;;;;;;5129534;27;20062;-71
2022/10/09 07:27:53;;;;;;;3.53;0.52;;;;;;;;;;5129089;27;20647;-72
2022/10/09 07:30:23;;;;;;;5.10;0.55;;;;;;;;;;5128513;27;20047;-74
2022/10/09 07:32:53;;;;;;;2.67;0.57;;;;;;;;;;5127231;27;20498;-72
2022/10/09 07:35:22;;;;;;;;;;;;;;;;;;5129254;27;20055;-72
2022/10/09 07:37:52;;;;;;;1.23;0.30;;;;;;;;;;5128379;27;20305;-72
2022/10/09 07:40:21;;;;;;;;;;;;;;;;;;5128467;27;20098;-71
2022/10/09 07:42:50;;;;;;;4.32;0.63;;;;;;;;;;5128865;27;20278;-72
2022/10/09 07:45:20;;;;;;;;;;;;;;;;;;5129396;27;20512;-72
2022/10/09 07:47:49;;;;;;;2.70;0.40;;;;;;;;;;5128592;27;19919;-73
2022/10/09 07:50:19;;;;;;;0.52;0.22;;;;;;;;;;5128418;27;20039;-70
2022/10/09 07:52:48;;;;;;;;;;;;;;;;;;5128927;27;20634;-70
2022/10/09 07:55:19;;;;;;;2.25;0.50;;;;;;;;;;5128777;27;19924;-73
2022/10/09 07:57:48;;;;;;;;;;;;;;;;;;5129217;27;20038;-72
2022/10/09 08:00:18;;;;;;;0.32;0.13;;;;;;;;;;5127874;27;20480;-72
2022/10/09 08:02:49;;;;;;;4.55;0.47;;;;;;;;;;5128311;27;20054;-71
2022/10/09 08:05:21;;;;;;;3.40;0.40;;;;;;;;;;5126303;27;20047;-71
2022/10/09 08:07:51;;;;;;;4.10;0.50;;;;;;;;;;5128169;27;20113;-71
2022/10/09 08:10:21;;;;;;;0.90;0.13;;;;;;;;;;5128169;27;20051;-71
2022/10/09 08:12:52;;;;;;;1.45;0.40;;;;;;;;;;5127744;27;20043;-71
2022/10/09 08:15:21;;;;;;;1.42;0.43;;;;;;;;;;5126254;27;20062;-70
2022/10/09 08:17:55;;;;;;;2.25;0.40;;;;;;;;;;5127345;27;20437;-72
2022/10/09 08:20:25;;;;;;;4.32;0.50;;;;;;;;;;5128877;27;20069;-70
2022/10/09 08:22:54;;;;;;;;;;;;;;;;;;5128467;27;20520;-71
2022/10/09 08:25:24;;;;;;;2.28;0.38;;;;;;;;;;5128108;27;20278;-71
2022/10/09 08:27:53;;;;;;;;;;;;;;;;;;5128556;27;20054;-72
2022/10/09 08:30:23;;;;;;;0.75;0.22;;;;;;;;;;5127574;27;19930;-70
2022/10/09 08:32:53;;;;;;;2.33;0.25;;;;;;;;;;5127514;27;20046;-72
2022/10/09 08:35:22;;;;;;;;;;;;;;;;;;5126552;27;20811;-71
2022/10/09 08:37:52;;;;;;;0.95;0.63;;;;;;;;;;5127599;27;19930;-70
2022/10/09 08:40:33;;;;;;;2.45;0.40;;;;;;;;;;5126312;27;20054;-71
2022/10/09 08:43:05;;;;;;;0.50;0.32;;;;;;;;;;5127156;27;20043;-70
2022/10/09 08:45:38;;;;;;;5.80;0.55;;;;;;;;;;5127977;27;20039;-71
2022/10/09 08:48:16;;;;;;;4.32;0.60;;;;;;;;;;5127215;27;20043;-71
2022/10/09 08:50:52;;;;;;;0.40;0.30;;;;;;;;;;5127296;27;20046;-71
2022/10/09 08:53:57;;;;;;;1.95;0.50;;;;;;;;;;5127264;27;20058;-72
2022/10/09 08:56:32;;;;;;;4.47;0.40;;;;;;;;;;5127499;27;20039;-70
2022/10/09 08:59:03;;;;;;;3.53;0.50;;;;;;;;;;5126667;27;20558;-70
2022/10/09 09:01:46;;;;;;;0.73;0.30;;;;;;;;;;5127190;27;20046;-72
2022/10/09 09:04:33;;;;;;;2.80;0.70;;;;;;;;;;5126755;28;20039;-71
2022/10/09 09:07:31;;;;;;;3.50;0.60;;;;;;;;;;5126603;28;20043;-71
2022/10/09 09:10:09;;;;;;;0.30;0.30;;;;;;;;;;5127883;28;20532;-71
2022/10/09 09:13:03;;;;;;;1.02;0.40;;;;;;;;;;5127020;27;20049;-72
2022/10/09 09:15:47;;;;;;;5.68;0.50;;;;;;;;;;5126936;28;20546;-72
2022/10/09 09:18:43;;;;;;;1.13;0.40;;;;;;;;;;5126245;27;20440;-72
2022/10/09 09:21:34;;;;;;;1.48;0.63;;;;;;;;;;5127193;28;20547;-72
2022/10/09 09:24:18;;;;;;;0.80;0.50;;;;;;;;;;5125162;28;20428;-72
2022/10/09 09:26:55;;;;;;;1.60;0.40;;;;;;;;;;5127240;28;20043;-71
2022/10/09 09:29:26;;;;;;;0.50;0.50;;;;;;;;;;5127386;28;20047;-70
2022/10/09 09:31:59;;;;;;;2.38;0.40;;;;;;;;;;5127219;28;20047;-72
2022/10/09 09:34:40;;;;;;;2.88;0.63;;;;;;;;;;5126862;28;20039;-72
2022/10/09 09:37:12;;;;;;;2.63;0.43;;;;;;;;;;5126918;28;20066;-72
2022/10/09 09:39:43;;;;;;;3.50;0.60;;;;;;;;;;5127305;28;20662;-70
2022/10/09 09:42:33;;;;;;;1.67;0.60;;;;;;;;;;5126720;28;20046;-72
2022/10/09 09:45:07;;;;;;;2.47;0.60;;;;;;;;;;5126894;28;20413;-70
2022/10/09 09:48:07;;;;;;;3.80;0.70;;;;;;;;;;5128351;28;20066;-71
2022/10/09 09:50:41;;;;;;;3.90;0.80;;;;;;;;;;5127059;28;20707;-70
2022/10/09 09:53:34;;;;;;;5.10;0.82;;;;;;;;;;5126814;28;20051;-71
2022/10/09 09:56:04;;;;;;;0.80;0.50;;;;;;;;;;5125676;28;20509;-70
2022/10/09 09:58:46;;;;;;;3.60;0.70;;;;;;;;;;5126871;28;20039;-70
2022/10/09 10:01:22;;;;;;;2.85;0.55;;;;;;;;;;5126874;27;20047;-72
2022/10/09 10:03:55;;;;;;;1.98;0.50;;;;;;;;;;5130151;27;20413;-71
2022/10/09 10:06:43;;;;;;;0.65;0.60;;;;;;;;;;5129394;27;20885;-71
2022/10/09 10:09:15;;;;;;;1.40;0.50;;;;;;;;;;5130603;27;20494;-76
2022/10/09 10:11:57;;;;;;;1.13;0.50;;;;;;;;;;5129909;27;20046;-70
2022/10/09 10:14:28;;;;;;;4.68;0.80;;;;;;;;;;5130479;27;20047;-71
2022/10/09 10:17:00;;;;;;;3.97;0.73;;;;;;;;;;5130535;27;20039;-70
2022/10/09 10:19:37;;;;;;;6.05;1.00;;;;;;;;;;5130079;27;20047;-71
2022/10/09 10:22:22;;;;;;;3.40;0.70;;;;;;;;;;5127984;27;20047;-72
2022/10/09 10:24:56;;;;;;;2.88;0.55;;;;;;;;;;5130613;27;20169;-72
2022/10/09 10:27:38;;;;;;;1.98;0.90;;;;;;;;;;5128839;27;20409;-77
2022/10/09 10:30:15;;;;;;;2.53;0.88;;;;;;;;;;5129601;27;20043;-69
2022/10/09 10:33:07;;;;;;;5.65;1.17;;;;;;;;;;5130216;27;20058;-71
2022/10/09 10:35:39;;;;;;;3.50;0.95;;;;;;;;;;5129625;27;20051;-72
2022/10/09 10:38:26;;;;;;;3.25;0.70;;;;;;;;;;5129750;27;20497;-71
2022/10/09 10:41:12;;;;;;;5.88;1.05;;;;;;;;;;5127530;27;20055;-71
2022/10/09 10:44:03;;;;;;;1.77;0.40;;;;;;;;;;5129951;27;20043;-70
2022/10/09 10:46:52;;;;;;;4.60;0.63;;;;;;;;;;5130493;27;20062;-72
2022/10/09 10:49:22;;;;;;;1.67;0.50;;;;;;;;;;5129382;27;20035;-72
2022/10/09 10:52:15;;;;;;;3.78;0.80;;;;;;;;;;5129876;27;20039;-71
2022/10/09 10:55:13;;;;;;;2.83;0.60;;;;;;;;;;5129885;27;20524;-69
2022/10/09 10:58:16;;;;;;;2.42;0.57;;;;;;;;;;5129659;27;20035;-70
2022/10/09 11:01:27;;;;;;;0.57;0.57;;;;;;;;;;5128859;27;20058;-71
2022/10/09 11:04:05;;;;;;;4.50;0.63;;;;;;;;;;5065438;28;21240;-70
2022/10/09 11:06:55;;;;;;;3.13;0.90;;;;;;;;;;5125262;27;20509;-70
2022/10/09 11:09:31;;;;;;;1.08;0.98;;;;;;;;;;5129123;27;20047;-72
2022/10/09 11:12:32;;;;;;;0.35;0.35;;;;;;;;;;5129143;27;20051;-70
2022/10/09 11:15:20;;;;;;;4.95;0.70;;;;;;;;;;5128177;27;20042;-71
2022/10/09 11:18:02;;;;;;;3.22;0.65;;;;;;;;;;5128599;27;20051;-71
2022/10/09 11:20:43;;;;;;;3.00;1.10;;;;;;;;;;5128487;27;20654;-72
2022/10/09 11:23:19;;;;;;;2.17;0.55;;;;;;;;;;5128882;27;20047;-73
2022/10/09 11:26:04;;;;;;;1.65;0.73;;;;;;;;;;5128232;27;20051;-71
2022/10/09 11:28:44;;;;;;;2.17;0.57;;;;;;;;;;5128045;27;20043;-71
2022/10/09 11:31:45;;;;;;;3.80;0.75;;;;;;;;;;5128869;27;20520;-71
2022/10/09 11:34:42;;;;;;;1.70;0.68;;;;;;;;;;5102070;27;20067;-72
2022/10/09 11:37:20;;;;;;;3.55;0.47;;;;;;;;;;5119731;27;20078;-71
2022/10/09 11:39:50;;;;;;;1.20;0.60;;;;;;;;;;5128368;27;20042;-71
2022/10/09 11:42:24;;;;;;;3.10;0.65;;;;;;;;;;5127887;27;20424;-71
2022/10/09 11:45:20;;;;;;;2.35;1.05;;;;;;;;;;5128213;27;20050;-71
2022/10/09 11:48:09;;;;;;;1.85;0.82;;;;;;;;;;5126524;27;20055;-72
2022/10/09 11:51:03;;;;;;;3.22;0.70;;;;;;;;;;5128301;27;20039;-71
2022/10/09 11:53:35;;;;;;;1.75;0.50;;;;;;;;;;5127427;27;20078;-73
2022/10/09 11:56:18;;;;;;;2.20;0.45;;;;;;;;;;5128952;27;20039;-71
2022/10/09 11:59:03;;;;;;;2.65;0.38;;;;;;;;;;5127871;27;20043;-71
2022/10/09 12:01:40;;;;;;;3.05;0.60;;;;;;;;;;5128050;27;20046;-71
2022/10/09 12:04:16;;;;;;;3.05;0.40;;;;;;;;;;5126876;27;20058;-71
2022/10/09 12:07:08;;;;;;;2.55;0.80;;;;;;;;;;5127435;27;20533;-72
2022/10/09 12:09:47;;;;;;;1.40;0.70;;;;;;;;;;5127679;27;20082;-71
2022/10/09 12:12:17;;;;;;;0.60;0.50;;;;;;;;;;5127709;27;20043;-70
2022/10/09 12:14:49;;;;;;;3.88;0.80;;;;;;;;;;5127525;27;20055;-71
2022/10/09 12:17:22;;;;;;;2.03;0.47;;;;;;;;;;5126215;27;20047;-73
2022/10/09 12:20:16;;;;;;;4.10;0.82;;;;;;;;;;5128034;27;20047;-74
2022/10/09 12:22:56;;;;;;;2.47;0.70;;;;;;;;;;5128134;27;20046;-72
2022/10/09 12:25:47;;;;;;;4.35;1.00;;;;;;;;;;5106860;28;20421;-72
2022/10/09 12:28:29;;;;;;;4.68;0.88;;;;;;;;;;5107211;28;20525;-72
2022/10/09 12:31:02;;;;;;;3.53;0.63;;;;;;;;;;5107010;28;20047;-71
2022/10/09 12:33:50;;;;;;;1.35;0.80;;;;;;;;;;5106748;28;20051;-75
2022/10/09 12:36:26;;;;;;;2.55;0.60;;;;;;;;;;5105014;28;20166;-71
2022/10/09 12:38:57;;;;;;;1.85;0.50;;;;;;;;;;5106802;28;20628;-70
2022/10/09 12:41:30;;;;;;;5.38;0.73;;;;;;;;;;5106150;28;20051;-70
2022/10/09 12:44:16;;;;;;;3.40;0.60;;;;;;;;;;5106638;28;20508;-72
2022/10/09 12:46:46;;;;;;;4.40;0.77;;;;;;;;;;5105128;28;20055;-72
2022/10/09 12:49:20;;;;;;;23.98;9.57;;;;;;;;;;5107050;28;20046;-72
2022/10/09 12:51:54;;;;;;;85.00;35.90;;;;;;;;;;5106878;28;20044;-76
2022/10/09 12:54:26;;;;;;;11.20;5.13;;;;;;;;;;5106710;28;20043;-72
2022/10/09 12:56:58;;;;;;;2.42;1.52;;;;;;;;;;5106956;28;20442;-72
2022/10/09 12:59:28;;;;;;;2.13;0.70;;;;;;;;;;5106857;28;20062;-72
2022/10/09 13:01:59;;;;;;;15.65;8.52;;;;;;;;;;5106861;28;20051;-72
2022/10/09 13:04:32;;;;;;;10.30;3.15;;;;;;;;;;5106467;28;20044;-73
2022/10/09 13:07:16;;;;;;;1.65;0.70;;;;;;;;;;5106843;28;20036;-72
2022/10/09 13:09:46;;;;;;;3.28;0.70;;;;;;;;;;5106639;28;20051;-72
2022/10/09 13:12:20;;;;;;;3.03;0.70;;;;;;;;;;5106695;28;20044;-71
2022/10/09 13:15:02;;;;;;;2.45;0.90;;;;;;;;;;5107204;28;20044;-72
2022/10/09 13:17:37;;;;;;;5.97;2.40;;;;;;;;;;5106388;28;20044;-72
2022/10/09 13:20:15;;;;;;;3.78;1.55;;;;;;;;;;5106699;28;20039;-73
2022/10/09 13:22:56;;;;;;;5.57;1.02;;;;;;;;;;5105812;28;20047;-73
2022/10/09 13:25:37;;;;;;;8.93;2.30;;;;;;;;;;5104035;28;20039;-72
2022/10/09 13:28:11;;;;;;;2.75;0.95;;;;;;;;;;5104988;28;20054;-72
2022/10/09 13:30:41;;;;;;;4.88;1.60;;;;;;;;;;5105447;28;20044;-72
2022/10/09 13:33:15;;;;;;;4.10;1.45;;;;;;;;;;5105170;28;20117;-73
2022/10/09 13:35:45;;;;;;;5.32;1.15;;;;;;;;;;5105438;28;20047;-72
2022/10/09 13:38:18;;;;;;;1.58;1.02;;;;;;;;;;5110092;28;20051;-72
2022/10/09 13:40:49;;;;;;;3.53;0.90;;;;;;;;;;5110865;28;20047;-73
2022/10/09 13:43:25;;;;;;;0.88;0.70;;;;;;;;;;5109083;28;20047;-71
2022/10/09 13:45:55;;;;;;;3.55;0.90;;;;;;;;;;5110650;28;20051;-73
2022/10/09 13:48:25;;;;;;;1.15;0.88;;;;;;;;;;5110007;28;20047;-71
2022/10/09 13:50:58;;;;;;;1.85;0.80;;;;;;;;;;5110469;28;20052;-74
2022/10/09 13:53:28;;;;;;;2.53;1.00;;;;;;;;;;5110224;28;20043;-75
2022/10/09 13:55:58;;;;;;;4.25;0.82;;;;;;;;;;5110191;28;20418;-75
2022/10/09 13:58:30;;;;;;;3.17;0.93;;;;;;;;;;5109710;28;20055;-73
2022/10/09 14:01:00;;;;;;;2.67;1.17;;;;;;;;;;5109462;28;20520;-74
2022/10/09 14:03:30;;;;;;;3.63;1.02;;;;;;;;;;5109334;28;20043;-71
2022/10/09 14:06:02;;;;;;;3.13;1.73;;;;;;;;;;5106975;28;20074;-75
2022/10/09 14:08:32;;;;;;;2.58;1.17;;;;;;;;;;5106865;28;20503;-76
2022/10/09 14:11:04;;;;;;;4.88;1.33;;;;;;;;;;5108248;28;20039;-72
2022/10/09 14:13:38;;;;;;;4.70;1.00;;;;;;;;;;5107729;28;20035;-73
2022/10/09 14:16:10;;;;;;;2.20;1.02;;;;;;;;;;5107559;28;20414;-72
2022/10/09 14:18:40;;;;;;;1.45;1.08;;;;;;;;;;5107744;28;20052;-73
2022/10/09 14:21:12;;;;;;;3.60;1.35;;;;;;;;;;5109394;28;20043;-75
2022/10/09 14:23:43;;;;;;;5.40;1.08;;;;;;;;;;5108885;28;20051;-75
2022/10/09 14:26:14;;;;;;;4.72;1.00;;;;;;;;;;5109763;28;20395;-73
2022/10/09 14:28:44;;;;;;;5.25;1.70;;;;;;;;;;5109531;28;20395;-75
2022/10/09 14:31:16;;;;;;;3.78;1.08;;;;;;;;;;5109807;28;20054;-75
2022/10/09 14:33:48;;;;;;;2.05;1.23;;;;;;;;;;5107424;28;20831;-72
2022/10/09 14:36:19;;;;;;;7.78;1.38;;;;;;;;;;5109109;28;20046;-75
2022/10/09 14:38:49;;;;;;;1.42;1.00;;;;;;;;;;5107971;28;20695;-75
2022/10/09 14:41:21;;;;;;;3.85;1.20;;;;;;;;;;5109394;28;20054;-73
2022/10/09 14:43:58;;;;;;;7.53;1.13;;;;;;;;;;5109374;28;20050;-74
2022/10/09 14:46:32;;;;;;;6.35;1.40;;;;;;;;;;5109438;28;20058;-75
2022/10/09 14:49:06;;;;;;;8.27;1.50;;;;;;;;;;5106278;28;20513;-75
2022/10/09 14:51:40;;;;;;;4.38;1.45;;;;;;;;;;5107164;28;20518;-74
2022/10/09 14:54:11;;;;;;;2.60;1.52;;;;;;;;;;5108872;28;20055;-72
2022/10/09 14:56:41;;;;;;;4.88;1.70;;;;;;;;;;5108279;28;20062;-75
2022/10/09 14:59:11;;;;;;;4.88;1.10;;;;;;;;;;5107961;28;20044;-72
2022/10/09 15:01:40;;;;;;;2.08;0.80;;;;;;;;;;5108163;28;20140;-74
2022/10/09 15:04:12;;;;;;;3.10;1.20;;;;;;;;;;5107169;28;20052;-73
2022/10/09 15:06:43;;;;;;;8.80;1.63;;;;;;;;;;5106549;28;20052;-71
2022/10/09 15:09:13;;;;;;;7.05;1.27;;;;;;;;;;5107942;28;20074;-73
2022/10/09 15:11:43;;;;;;;4.78;1.20;;;;;;;;;;5108498;28;20048;-72
2022/10/09 15:14:13;;;;;;;4.03;1.67;;;;;;;;;;5107745;28;20054;-72
2022/10/09 15:16:42;;;;;;;5.07;1.27;;;;;;;;;;5108020;28;20113;-70
2022/10/09 15:19:12;;;;;;;3.03;1.20;;;;;;;;;;5107784;28;20039;-71
2022/10/09 15:21:42;;;;;;;5.05;1.23;;;;;;;;;;5108267;28;20532;-72
2022/10/09 15:24:12;;;;;;;3.53;1.73;;;;;;;;;;5107448;28;20410;-74
2022/10/09 15:26:42;;;;;;;2.72;1.00;;;;;;;;;;5107948;28;20047;-76
2022/10/09 15:29:12;;;;;;;5.18;1.17;;;;;;;;;;5107679;28;20043;-75
2022/10/09 15:31:41;;;;;;;2.20;1.38;;;;;;;;;;5107730;28;20040;-74
2022/10/09 15:34:16;;;;;;;3.28;1.23;;;;;;;;;;5107079;28;20059;-74